createdAt,value
2023-05-20T00:01:12.410Z,42.30
2023-05-20T00:04:24.055Z,42.20
2023-05-20T00:07:34.292Z,42.30
2023-05-20T00:10:47.054Z,42.00
2023-05-20T00:13:57.940Z,42.00
2023-05-20T00:17:09.991Z,42.10
2023-05-20T00:20:25.334Z,42.00
2023-05-20T00:23:36.970Z,42.00
2023-05-20T00:26:45.684Z,42.20
2023-05-20T00:29:56.716Z,42.30
2023-05-20T00:33:10.205Z,42.20
2023-05-20T00:36:23.076Z,42.20
2023-05-20T00:39:29.956Z,42.80
2023-05-20T00:42:43.536Z,42.70
2023-05-20T00:45:55.255Z,43.00
2023-05-20T00:49:03.340Z,43.00
2023-05-20T00:52:15.519Z,43.00
2023-05-20T00:55:26.648Z,43.30
2023-05-20T00:58:37.383Z,43.20
2023-05-20T01:01:49.299Z,43.30
2023-05-20T01:05:01.007Z,43.30
2023-05-20T01:08:13.580Z,43.00
2023-05-20T01:11:25.992Z,43.30
2023-05-20T01:14:37.534Z,43.20
2023-05-20T01:17:49.818Z,43.20
2023-05-20T01:21:02.167Z,43.20
2023-05-20T01:24:14.432Z,43.10
2023-05-20T01:27:28.210Z,43.00
2023-05-20T01:30:41.936Z,43.00
2023-05-20T01:33:54.347Z,43.00
2023-05-20T01:37:03.233Z,43.00
2023-05-20T01:40:18.372Z,42.90
2023-05-20T01:43:27.440Z,42.90
2023-05-20T01:46:41.106Z,43.00
2023-05-20T01:49:55.855Z,43.00
2023-05-20T01:53:08.422Z,43.00
2023-05-20T01:56:20.956Z,42.80
2023-05-20T01:59:31.916Z,42.80
2023-05-20T02:02:43.261Z,42.90
2023-05-20T02:05:51.589Z,42.80
2023-05-20T02:09:02.353Z,42.80
2023-05-20T02:12:15.864Z,42.70
2023-05-20T02:15:30.331Z,42.80
2023-05-20T02:18:41.227Z,42.90
2023-05-20T02:21:54.045Z,42.80
2023-05-20T02:25:05.452Z,42.80
2023-05-20T02:28:17.022Z,42.80
2023-05-20T02:31:28.479Z,42.90
2023-05-20T02:34:39.402Z,42.80
2023-05-20T02:37:50.644Z,42.80
2023-05-20T02:41:03.582Z,42.80
2023-05-20T02:44:13.838Z,42.80
2023-05-20T02:47:25.864Z,42.80
2023-05-20T02:50:38.803Z,42.80
2023-05-20T02:53:49.198Z,42.70
2023-05-20T02:56:59.864Z,42.80
2023-05-20T03:00:15.608Z,42.80
2023-05-20T03:03:28.872Z,42.80
2023-05-20T03:06:43.551Z,42.70
2023-05-20T03:09:57.245Z,42.60
2023-05-20T03:13:09.205Z,42.70
2023-05-20T03:16:21.244Z,42.70
2023-05-20T03:19:34.939Z,42.70
2023-05-20T03:22:44.029Z,42.60
2023-05-20T03:25:52.454Z,42.50
2023-05-20T03:29:02.026Z,42.40
2023-05-20T03:32:15.934Z,42.60
2023-05-20T03:35:27.842Z,42.60
2023-05-20T03:38:40.914Z,42.50
2023-05-20T03:41:46.438Z,42.50
2023-05-20T03:44:55.852Z,42.50
2023-05-20T03:48:05.928Z,42.60
2023-05-20T03:51:15.641Z,42.50
2023-05-20T03:54:25.552Z,42.40
2023-05-20T03:57:35.129Z,42.30
2023-05-20T04:00:46.984Z,42.40
2023-05-20T04:03:57.298Z,42.40
2023-05-20T04:07:10.104Z,42.40
2023-05-20T04:10:21.415Z,42.30
2023-05-20T04:16:46.098Z,42.30
2023-05-20T04:19:57.678Z,42.40
2023-05-20T04:23:08.747Z,42.40
2023-05-20T04:26:19.649Z,42.30
2023-05-20T04:29:34.411Z,42.30
2023-05-20T04:32:46.385Z,42.40
2023-05-20T04:36:01.217Z,42.40
2023-05-20T04:39:13.164Z,42.40
2023-05-20T04:42:24.318Z,42.30
2023-05-20T04:45:38.122Z,42.40
2023-05-20T04:48:50.230Z,42.40
2023-05-20T04:52:03.302Z,42.40
2023-05-20T04:55:13.451Z,42.40
2023-05-20T04:58:26.260Z,42.30
2023-05-20T05:01:37.486Z,42.40
2023-05-20T05:04:47.885Z,42.40
2023-05-20T05:08:01.061Z,42.40
2023-05-20T05:11:11.938Z,42.40
2023-05-20T05:14:19.397Z,42.40
2023-05-20T05:17:31.050Z,42.50
2023-05-20T05:20:40.975Z,42.50
2023-05-20T05:23:51.540Z,42.50
2023-05-20T05:27:02.593Z,42.40
2023-05-20T05:30:18.424Z,42.50
2023-05-20T05:33:30.192Z,42.50
2023-05-20T05:36:40.737Z,42.50
2023-05-20T05:39:49.677Z,42.40
2023-05-20T05:43:01.295Z,42.40
2023-05-20T05:46:12.758Z,42.50
2023-05-20T05:49:22.478Z,42.50
2023-05-20T05:52:35.485Z,42.40
2023-05-20T05:55:46.188Z,42.30
2023-05-20T05:58:58.896Z,42.30
2023-05-20T06:02:12.413Z,42.30
2023-05-20T06:05:26.919Z,42.40
2023-05-20T06:08:40.556Z,42.40
2023-05-20T06:11:50.528Z,42.30
2023-05-20T06:15:04.977Z,42.40
2023-05-20T06:18:14.555Z,42.40
2023-05-20T06:21:26.533Z,42.50
2023-05-20T06:24:40.374Z,42.50
2023-05-20T06:27:53.299Z,42.50
2023-05-20T06:31:05.297Z,42.50
2023-05-20T06:34:13.088Z,42.50
2023-05-20T06:37:27.633Z,42.40
2023-05-20T06:40:40.279Z,42.30
2023-05-20T06:43:53.728Z,42.40
2023-05-20T06:47:06.446Z,42.50
2023-05-20T06:50:19.300Z,42.40
2023-05-20T06:53:32.260Z,42.50
2023-05-20T06:56:43.843Z,42.40
2023-05-20T06:59:55.801Z,42.50
2023-05-20T07:03:07.519Z,42.60
2023-05-20T07:06:17.750Z,42.60
2023-05-20T07:09:27.431Z,42.50
2023-05-20T07:12:40.815Z,42.60
2023-05-20T07:15:54.354Z,42.70
2023-05-20T07:19:03.451Z,42.70
2023-05-20T07:22:15.739Z,42.70
2023-05-20T07:25:27.850Z,42.60
2023-05-20T07:28:39.043Z,42.60
2023-05-20T07:31:52.704Z,42.70
2023-05-20T07:35:04.958Z,42.60
2023-05-20T07:38:16.917Z,42.70
2023-05-20T07:41:30.822Z,42.60
2023-05-20T07:44:42.637Z,42.60
2023-05-20T07:47:52.921Z,42.80
2023-05-20T07:51:04.771Z,42.70
2023-05-20T07:54:13.867Z,42.70
2023-05-20T07:57:27.384Z,42.50
2023-05-20T08:00:43.601Z,42.70
2023-05-20T08:03:54.571Z,42.70
2023-05-20T08:07:08.405Z,42.70
2023-05-20T08:10:20.275Z,42.70
2023-05-20T08:13:28.605Z,42.80
2023-05-20T08:16:40.481Z,42.80
2023-05-20T08:19:52.948Z,42.80
2023-05-20T08:23:02.851Z,42.80
2023-05-20T08:26:13.475Z,42.80
2023-05-20T08:29:25.460Z,42.80
2023-05-20T08:32:36.759Z,42.80
2023-05-20T08:35:45.473Z,42.90
2023-05-20T08:38:58.429Z,42.90
2023-05-20T08:42:11.106Z,42.90
2023-05-20T08:45:19.679Z,42.90
2023-05-20T08:48:32.807Z,42.90
2023-05-20T08:51:41.673Z,42.90
2023-05-20T08:54:56.836Z,42.90
2023-05-20T08:58:07.762Z,42.80
2023-05-20T09:01:20.821Z,42.90
2023-05-20T09:04:34.691Z,43.00
2023-05-20T09:07:44.840Z,42.90
2023-05-20T09:10:55.132Z,42.90
2023-05-20T09:14:07.361Z,43.50
2023-05-20T09:17:21.106Z,43.00
2023-05-20T09:20:32.263Z,43.00
2023-05-20T09:23:46.410Z,43.10
2023-05-20T09:26:56.785Z,42.90
2023-05-20T09:30:11.300Z,43.00
2023-05-20T09:33:23.715Z,43.10
2023-05-20T09:36:38.098Z,43.00
2023-05-20T09:39:52.859Z,43.00
2023-05-20T09:43:04.960Z,43.00
2023-05-20T09:46:14.775Z,43.10
2023-05-20T09:49:24.970Z,43.10
2023-05-20T09:52:34.834Z,43.00
2023-05-20T09:55:46.373Z,43.00
2023-05-20T09:58:58.128Z,43.10
2023-05-20T10:02:08.439Z,43.10
2023-05-20T10:05:22.370Z,43.10
2023-05-20T10:08:51.886Z,43.10
2023-05-20T10:12:04.204Z,43.10
2023-05-20T10:15:17.987Z,43.10
2023-05-20T10:18:32.718Z,43.10
2023-05-20T10:21:40.930Z,43.10
2023-05-20T10:24:52.000Z,43.10
2023-05-20T10:28:14.211Z,43.20
2023-05-20T10:31:26.223Z,43.30
2023-05-20T10:34:38.175Z,43.20
2023-05-20T10:37:50.800Z,43.30
2023-05-20T10:41:04.267Z,43.80
2023-05-20T10:44:16.868Z,43.20
2023-05-20T10:47:27.756Z,43.30
2023-05-20T10:50:40.854Z,43.20
2023-05-20T10:53:50.147Z,43.20
2023-05-20T10:57:01.065Z,43.10
2023-05-20T11:00:20.064Z,43.10
2023-05-20T11:03:32.869Z,43.10
2023-05-20T11:06:47.387Z,43.10
2023-05-20T11:09:58.139Z,43.10
2023-05-20T11:13:10.098Z,43.20
2023-05-20T11:16:20.740Z,43.30
2023-05-20T11:19:30.250Z,43.30
2023-05-20T11:22:42.920Z,43.30
2023-05-20T11:25:55.952Z,43.70
2023-05-20T11:29:07.805Z,43.70
2023-05-20T11:32:20.692Z,44.00
2023-05-20T11:35:29.478Z,44.10
2023-05-20T11:38:41.003Z,44.50
2023-05-20T11:41:52.618Z,44.50
2023-05-20T11:45:04.137Z,44.60
2023-05-20T11:48:16.118Z,44.50
2023-05-20T11:51:29.216Z,44.40
2023-05-20T11:54:38.099Z,44.80
2023-05-20T11:57:48.134Z,44.60
2023-05-20T12:01:09.157Z,44.60
2023-05-20T12:04:10.248Z,44.60
2023-05-20T12:07:21.390Z,44.50
2023-05-20T12:10:29.575Z,44.50
2023-05-20T12:13:39.628Z,44.40
2023-05-20T12:16:51.495Z,44.40
2023-05-20T12:20:07.423Z,44.50
2023-05-20T12:23:21.675Z,44.80
2023-05-20T12:26:34.505Z,44.90
2023-05-20T12:29:47.042Z,44.90
2023-05-20T12:32:56.401Z,44.80
2023-05-20T12:36:09.004Z,44.70
2023-05-20T12:39:20.226Z,45.50
2023-05-20T12:42:30.207Z,45.00
2023-05-20T12:45:43.837Z,45.10
2023-05-20T12:48:58.306Z,45.10
2023-05-20T12:52:21.897Z,45.20
2023-05-20T12:55:25.762Z,45.30
2023-05-20T12:58:34.912Z,45.00
2023-05-20T13:01:44.649Z,45.10
2023-05-20T13:04:54.617Z,45.00
2023-05-20T13:08:04.851Z,44.90
2023-05-20T13:11:16.436Z,44.80
2023-05-20T13:14:27.346Z,44.70
2023-05-20T13:17:40.954Z,45.10
2023-05-20T13:20:52.263Z,45.00
2023-05-20T13:24:03.371Z,45.00
2023-05-20T13:27:15.444Z,44.80
2023-05-20T13:30:28.729Z,44.90
2023-05-20T13:33:40.494Z,44.90
2023-05-20T13:36:52.416Z,44.90
2023-05-20T13:40:04.339Z,44.80
2023-05-20T13:43:14.222Z,44.60
2023-05-20T13:46:21.773Z,44.70
2023-05-20T13:49:33.688Z,44.60
2023-05-20T13:52:43.730Z,44.40
2023-05-20T13:55:53.099Z,44.30
2023-05-20T13:59:04.081Z,44.20
2023-05-20T14:02:15.058Z,44.10
2023-05-20T14:08:40.462Z,44.00
2023-05-20T14:11:52.060Z,43.90
2023-05-20T14:15:03.874Z,44.00
2023-05-20T14:18:13.075Z,44.00
2023-05-20T14:21:23.400Z,43.90
2023-05-20T14:24:34.843Z,43.60
2023-05-20T14:27:47.145Z,43.30
2023-05-20T14:30:59.900Z,43.40
2023-05-20T14:34:09.015Z,43.20
2023-05-20T14:37:19.701Z,43.30
2023-05-20T14:40:32.794Z,43.20
2023-05-20T14:43:44.744Z,43.10
2023-05-20T14:46:55.646Z,43.40
2023-05-20T14:50:03.252Z,43.40
2023-05-20T14:53:14.247Z,43.40
2023-05-20T14:56:25.372Z,43.30
2023-05-20T14:59:37.886Z,43.20
2023-05-20T15:02:47.847Z,43.40
2023-05-20T15:05:59.658Z,43.40
2023-05-20T15:09:12.013Z,43.50
2023-05-20T15:12:23.900Z,43.30
2023-05-20T15:15:36.232Z,43.30
2023-05-20T15:18:47.707Z,43.30
2023-05-20T15:21:57.864Z,43.40
2023-05-20T15:25:10.830Z,43.30
2023-05-20T15:28:22.245Z,43.40
2023-05-20T15:31:32.206Z,43.40
2023-05-20T15:34:43.707Z,43.50
2023-05-20T15:37:54.735Z,44.20
2023-05-20T15:41:05.336Z,43.60
2023-05-20T15:44:15.099Z,43.80
2023-05-20T15:47:29.424Z,44.00
2023-05-20T15:50:40.493Z,44.60
2023-05-20T15:53:49.726Z,44.10
2023-05-20T15:57:01.519Z,44.00
2023-05-20T16:00:15.543Z,44.00
2023-05-20T16:03:27.726Z,44.10
2023-05-20T16:06:41.660Z,44.10
2023-05-20T16:09:51.776Z,44.10
2023-05-20T16:13:03.542Z,44.00
2023-05-20T16:16:15.216Z,44.10
2023-05-20T16:19:29.753Z,44.10
2023-05-20T16:22:39.225Z,44.20
2023-05-20T16:25:49.483Z,44.00
2023-05-20T16:29:01.157Z,43.90
2023-05-20T16:32:11.663Z,43.90
2023-05-20T16:35:22.116Z,44.00
2023-05-20T16:38:34.966Z,44.00
2023-05-20T16:41:46.921Z,43.90
2023-05-20T16:44:58.382Z,43.90
2023-05-20T16:48:11.921Z,43.90
2023-05-20T16:51:23.653Z,43.90
2023-05-20T16:54:38.883Z,43.90
2023-05-20T16:57:53.732Z,43.80
2023-05-20T17:01:05.184Z,43.90
2023-05-20T17:04:14.956Z,43.90
2023-05-20T17:07:23.922Z,44.00
2023-05-20T17:10:34.787Z,43.80
2023-05-20T17:13:45.931Z,43.90
2023-05-20T17:16:57.024Z,44.00
2023-05-20T17:20:06.010Z,43.90
2023-05-20T17:23:16.595Z,43.90
2023-05-20T17:26:28.393Z,43.70
2023-05-20T17:29:40.449Z,43.90
2023-05-20T17:32:54.037Z,43.90
2023-05-20T17:36:03.694Z,43.90
2023-05-20T17:39:14.131Z,43.80
2023-05-20T17:42:26.579Z,43.70
2023-05-20T17:45:37.304Z,43.90
2023-05-20T17:48:48.038Z,43.80
2023-05-20T17:52:00.739Z,43.80
2023-05-20T17:55:13.497Z,43.70
2023-05-20T17:58:27.453Z,43.60
2023-05-20T18:01:37.839Z,43.70
2023-05-20T18:04:49.611Z,43.70
2023-05-20T18:07:59.568Z,43.70
2023-05-20T18:11:10.942Z,43.60
2023-05-20T18:14:23.881Z,43.60
2023-05-20T18:17:36.331Z,43.60
2023-05-20T18:20:43.959Z,43.50
2023-05-20T18:23:52.251Z,43.50
2023-05-20T18:27:02.618Z,43.50
2023-05-20T18:30:16.240Z,43.50
2023-05-20T18:33:25.277Z,43.30
2023-05-20T18:36:35.597Z,43.30
2023-05-20T18:39:44.931Z,43.20
2023-05-20T18:42:57.000Z,43.40
2023-05-20T18:46:06.562Z,43.40
2023-05-20T18:49:15.010Z,43.20
2023-05-20T18:52:25.243Z,43.10
2023-05-20T18:55:36.122Z,43.20
2023-05-20T18:58:48.567Z,43.30
2023-05-20T19:01:59.808Z,43.20
2023-05-20T19:05:13.119Z,43.00
2023-05-20T19:08:24.865Z,42.80
2023-05-20T19:11:39.566Z,42.90
2023-05-20T19:14:48.926Z,43.00
2023-05-20T19:18:00.874Z,43.00
2023-05-20T19:21:15.253Z,42.80
2023-05-20T19:24:25.468Z,42.70
2023-05-20T19:27:36.339Z,42.70
2023-05-20T19:30:46.207Z,42.90
2023-05-20T19:33:57.108Z,42.70
2023-05-20T19:37:08.207Z,42.70
2023-05-20T19:40:23.136Z,42.60
2023-05-20T19:43:34.796Z,42.70
2023-05-20T19:46:47.920Z,42.80
2023-05-20T19:49:54.773Z,42.60
2023-05-20T19:53:08.694Z,42.50
2023-05-20T19:56:20.092Z,42.50
2023-05-20T19:59:30.746Z,42.70
2023-05-20T20:02:40.813Z,42.60
2023-05-20T20:05:51.724Z,42.50
2023-05-20T20:09:02.900Z,42.50
2023-05-20T20:12:12.156Z,42.40
2023-05-20T20:15:23.310Z,42.50
2023-05-20T20:18:34.569Z,42.40
2023-05-20T20:21:44.761Z,42.30
2023-05-20T20:24:53.706Z,42.20
2023-05-20T20:28:04.313Z,42.30
2023-05-20T20:31:16.092Z,42.40
2023-05-20T20:34:27.781Z,42.20
2023-05-20T20:37:39.971Z,42.10
2023-05-20T20:40:50.392Z,42.10
2023-05-20T20:44:04.315Z,42.20
2023-05-20T20:47:14.897Z,42.20
2023-05-20T20:50:22.494Z,42.10
2023-05-20T20:53:32.608Z,42.10
2023-05-20T20:56:42.759Z,42.10
2023-05-20T20:59:54.036Z,42.20
2023-05-20T21:03:06.728Z,42.30
2023-05-20T21:06:16.521Z,42.30
2023-05-20T21:09:26.632Z,42.10
2023-05-20T21:12:38.918Z,41.50
2023-05-20T21:15:51.816Z,41.30
2023-05-20T21:22:11.015Z,41.10
2023-05-20T21:25:21.211Z,41.00
2023-05-20T21:28:34.791Z,41.20
2023-05-20T21:31:45.705Z,41.20
2023-05-20T21:34:56.827Z,41.20
2023-05-20T21:38:08.904Z,41.60
2023-05-20T21:41:19.508Z,41.80
2023-05-20T21:44:32.028Z,42.30
2023-05-20T21:47:44.651Z,42.30
2023-05-20T21:50:56.702Z,42.10
2023-05-20T21:54:05.960Z,43.00
2023-05-20T21:57:18.060Z,43.60
2023-05-20T22:00:29.113Z,43.50
2023-05-20T22:03:38.623Z,43.50
2023-05-20T22:06:52.705Z,43.50
2023-05-20T22:10:05.972Z,43.70
2023-05-20T22:13:16.488Z,43.90
2023-05-20T22:16:26.247Z,43.60
2023-05-20T22:19:35.871Z,43.60
2023-05-20T22:22:46.346Z,44.00
2023-05-20T22:25:56.304Z,43.60
2023-05-20T22:29:05.303Z,43.80
2023-05-20T22:32:16.227Z,43.80
2023-05-20T22:35:26.124Z,43.60
2023-05-20T22:38:40.402Z,44.10
2023-05-20T22:41:54.858Z,44.10
2023-05-20T22:45:07.685Z,43.80
2023-05-20T22:48:18.165Z,43.60
2023-05-20T22:51:29.176Z,43.40
2023-05-20T22:54:39.696Z,43.40
2023-05-20T22:57:50.704Z,43.40
2023-05-20T23:01:03.465Z,43.20
2023-05-20T23:04:15.653Z,43.60
2023-05-20T23:07:25.395Z,43.30
2023-05-20T23:10:38.823Z,43.40
2023-05-20T23:13:48.329Z,43.30
2023-05-20T23:16:58.227Z,43.30
2023-05-20T23:20:12.654Z,43.60
2023-05-20T23:23:31.236Z,44.20
2023-05-20T23:26:39.678Z,43.80
2023-05-20T23:29:51.627Z,43.60
2023-05-20T23:33:04.450Z,43.90
2023-05-20T23:36:15.579Z,43.60
2023-05-20T23:39:27.393Z,43.80
2023-05-20T23:42:37.445Z,43.70
2023-05-20T23:45:47.843Z,43.60
2023-05-20T23:48:57.600Z,43.70
2023-05-20T23:52:07.458Z,43.60
2023-05-20T23:55:20.775Z,43.40
2023-05-20T23:58:31.726Z,43.20
